sensor_id;sensor_type;location;lat;lon;timestamp;P1;durP1;ratioP1;P2;durP2;ratioP2
40995;SDS011;26723;57.478;12.066;2024-03-29T00:00:11;4.33;;;0.73;;
40995;SDS011;26723;57.478;12.066;2024-03-29T00:03:18;0.40;;;0.40;;
40995;SDS011;26723;57.478;12.066;2024-03-29T00:06:25;0.53;;;0.53;;
40995;SDS011;26723;57.478;12.066;2024-03-29T00:09:31;0.20;;;0.20;;
40995;SDS011;26723;57.478;12.066;2024-03-29T00:12:39;1.17;;;1.17;;
40995;SDS011;26723;57.478;12.066;2024-03-29T00:15:45;0.77;;;0.77;;
40995;SDS011;26723;57.478;12.066;2024-03-29T00:18:52;3.80;;;0.80;;
40995;SDS011;26723;57.478;12.066;2024-03-29T00:21:58;0.70;;;0.70;;
40995;SDS011;26723;57.478;12.066;2024-03-29T00:25:05;0.37;;;0.37;;
40995;SDS011;26723;57.478;12.066;2024-03-29T00:28:13;0.40;;;0.40;;
40995;SDS011;26723;57.478;12.066;2024-03-29T00:31:19;0.93;;;0.93;;
40995;SDS011;26723;57.478;12.066;2024-03-29T00:34:25;2.37;;;0.70;;
40995;SDS011;26723;57.478;12.066;2024-03-29T00:37:32;2.63;;;0.60;;
40995;SDS011;26723;57.478;12.066;2024-03-29T00:40:38;0.77;;;0.77;;
40995;SDS011;26723;57.478;12.066;2024-03-29T00:43:46;1.43;;;1.13;;
40995;SDS011;26723;57.478;12.066;2024-03-29T00:46:53;0.77;;;0.73;;
40995;SDS011;26723;57.478;12.066;2024-03-29T00:49:59;0.73;;;0.73;;
40995;SDS011;26723;57.478;12.066;2024-03-29T00:53:06;5.83;;;1.00;;
40995;SDS011;26723;57.478;12.066;2024-03-29T00:56:12;1.10;;;1.10;;
40995;SDS011;26723;57.478;12.066;2024-03-29T00:59:20;1.50;;;1.40;;
40995;SDS011;26723;57.478;12.066;2024-03-29T01:02:26;1.23;;;1.13;;
40995;SDS011;26723;57.478;12.066;2024-03-29T01:05:33;1.27;;;0.83;;
40995;SDS011;26723;57.478;12.066;2024-03-29T01:08:39;2.53;;;1.93;;
40995;SDS011;26723;57.478;12.066;2024-03-29T01:11:46;0.90;;;0.90;;
40995;SDS011;26723;57.478;12.066;2024-03-29T01:14:53;1.27;;;1.17;;
40995;SDS011;26723;57.478;12.066;2024-03-29T01:18:00;1.07;;;0.90;;
40995;SDS011;26723;57.478;12.066;2024-03-29T01:21:06;1.40;;;1.30;;
40995;SDS011;26723;57.478;12.066;2024-03-29T01:24:12;1.17;;;0.87;;
40995;SDS011;26723;57.478;12.066;2024-03-29T01:27:18;0.67;;;0.67;;
40995;SDS011;26723;57.478;12.066;2024-03-29T01:30:26;2.63;;;1.10;;
40995;SDS011;26723;57.478;12.066;2024-03-29T01:33:32;0.60;;;0.60;;
40995;SDS011;26723;57.478;12.066;2024-03-29T01:36:39;4.73;;;1.40;;
40995;SDS011;26723;57.478;12.066;2024-03-29T01:39:45;2.27;;;1.07;;
40995;SDS011;26723;57.478;12.066;2024-03-29T01:42:52;2.20;;;1.23;;
40995;SDS011;26723;57.478;12.066;2024-03-29T01:46:00;3.83;;;1.43;;
40995;SDS011;26723;57.478;12.066;2024-03-29T01:49:08;1.07;;;0.97;;
40995;SDS011;26723;57.478;12.066;2024-03-29T01:52:15;1.03;;;1.03;;
40995;SDS011;26723;57.478;12.066;2024-03-29T01:55:24;5.37;;;1.10;;
40995;SDS011;26723;57.478;12.066;2024-03-29T01:58:34;1.13;;;1.03;;
40995;SDS011;26723;57.478;12.066;2024-03-29T02:01:43;0.70;;;0.70;;
40995;SDS011;26723;57.478;12.066;2024-03-29T02:04:52;0.87;;;0.87;;
40995;SDS011;26723;57.478;12.066;2024-03-29T02:08:00;1.43;;;1.33;;
40995;SDS011;26723;57.478;12.066;2024-03-29T02:11:07;1.03;;;1.03;;
40995;SDS011;26723;57.478;12.066;2024-03-29T02:14:15;1.30;;;1.20;;
40995;SDS011;26723;57.478;12.066;2024-03-29T02:17:23;1.37;;;1.33;;
40995;SDS011;26723;57.478;12.066;2024-03-29T02:20:31;1.40;;;1.00;;
40995;SDS011;26723;57.478;12.066;2024-03-29T02:23:40;4.00;;;1.73;;
40995;SDS011;26723;57.478;12.066;2024-03-29T02:26:52;1.17;;;1.07;;
40995;SDS011;26723;57.478;12.066;2024-03-29T02:30:00;1.50;;;1.07;;
40995;SDS011;26723;57.478;12.066;2024-03-29T02:33:08;0.77;;;0.77;;
40995;SDS011;26723;57.478;12.066;2024-03-29T02:36:15;0.70;;;0.70;;
40995;SDS011;26723;57.478;12.066;2024-03-29T02:39:23;1.30;;;0.70;;
40995;SDS011;26723;57.478;12.066;2024-03-29T02:42:31;1.00;;;0.97;;
40995;SDS011;26723;57.478;12.066;2024-03-29T02:45:38;1.27;;;0.90;;
40995;SDS011;26723;57.478;12.066;2024-03-29T02:48:46;2.13;;;0.87;;
40995;SDS011;26723;57.478;12.066;2024-03-29T02:51:53;0.83;;;0.50;;
40995;SDS011;26723;57.478;12.066;2024-03-29T02:55:00;1.03;;;0.70;;
40995;SDS011;26723;57.478;12.066;2024-03-29T02:58:08;2.77;;;0.13;;
40995;SDS011;26723;57.478;12.066;2024-03-29T03:01:15;1.60;;;0.80;;
40995;SDS011;26723;57.478;12.066;2024-03-29T03:04:22;0.10;;;0.10;;
40995;SDS011;26723;57.478;12.066;2024-03-29T03:07:29;0.40;;;0.40;;
40995;SDS011;26723;57.478;12.066;2024-03-29T03:10:54;1.37;;;0.90;;
40995;SDS011;26723;57.478;12.066;2024-03-29T03:14:06;0.30;;;0.30;;
40995;SDS011;26723;57.478;12.066;2024-03-29T03:17:13;0.40;;;0.27;;
40995;SDS011;26723;57.478;12.066;2024-03-29T03:20:20;0.00;;;0.00;;
40995;SDS011;26723;57.478;12.066;2024-03-29T03:23:28;0.23;;;0.23;;
40995;SDS011;26723;57.478;12.066;2024-03-29T03:26:35;3.03;;;0.43;;
40995;SDS011;26723;57.478;12.066;2024-03-29T03:29:43;0.07;;;0.07;;
40995;SDS011;26723;57.478;12.066;2024-03-29T03:32:50;5.60;;;0.93;;
40995;SDS011;26723;57.478;12.066;2024-03-29T03:35:56;0.20;;;0.20;;
40995;SDS011;26723;57.478;12.066;2024-03-29T03:39:03;0.30;;;0.30;;
40995;SDS011;26723;57.478;12.066;2024-03-29T03:42:10;0.20;;;0.20;;
40995;SDS011;26723;57.478;12.066;2024-03-29T03:45:18;0.10;;;0.10;;
40995;SDS011;26723;57.478;12.066;2024-03-29T03:48:25;3.37;;;0.60;;
40995;SDS011;26723;57.478;12.066;2024-03-29T03:51:31;0.20;;;0.20;;
40995;SDS011;26723;57.478;12.066;2024-03-29T03:54:39;0.20;;;0.20;;
40995;SDS011;26723;57.478;12.066;2024-03-29T03:57:46;0.10;;;0.10;;
40995;SDS011;26723;57.478;12.066;2024-03-29T04:00:54;0.17;;;0.17;;
40995;SDS011;26723;57.478;12.066;2024-03-29T04:04:01;0.30;;;0.30;;
40995;SDS011;26723;57.478;12.066;2024-03-29T04:07:07;0.30;;;0.30;;
40995;SDS011;26723;57.478;12.066;2024-03-29T04:10:14;0.67;;;0.20;;
40995;SDS011;26723;57.478;12.066;2024-03-29T04:13:21;0.80;;;0.70;;
40995;SDS011;26723;57.478;12.066;2024-03-29T04:16:30;4.17;;;0.73;;
40995;SDS011;26723;57.478;12.066;2024-03-29T04:19:36;1.70;;;0.50;;
40995;SDS011;26723;57.478;12.066;2024-03-29T04:22:44;0.53;;;0.17;;
40995;SDS011;26723;57.478;12.066;2024-03-29T04:25:51;0.73;;;0.37;;
40995;SDS011;26723;57.478;12.066;2024-03-29T04:28:59;0.43;;;0.43;;
40995;SDS011;26723;57.478;12.066;2024-03-29T04:32:07;0.77;;;0.23;;
40995;SDS011;26723;57.478;12.066;2024-03-29T04:35:14;0.60;;;0.60;;
40995;SDS011;26723;57.478;12.066;2024-03-29T04:38:21;0.20;;;0.20;;
40995;SDS011;26723;57.478;12.066;2024-03-29T04:41:28;0.20;;;0.20;;
40995;SDS011;26723;57.478;12.066;2024-03-29T04:44:39;0.20;;;0.20;;
40995;SDS011;26723;57.478;12.066;2024-03-29T04:47:48;1.03;;;0.30;;
40995;SDS011;26723;57.478;12.066;2024-03-29T04:50:56;0.10;;;0.10;;
40995;SDS011;26723;57.478;12.066;2024-03-29T04:54:03;2.03;;;0.23;;
40995;SDS011;26723;57.478;12.066;2024-03-29T04:57:10;0.20;;;0.20;;
40995;SDS011;26723;57.478;12.066;2024-03-29T05:00:18;1.13;;;0.53;;
40995;SDS011;26723;57.478;12.066;2024-03-29T05:03:27;0.30;;;0.30;;
40995;SDS011;26723;57.478;12.066;2024-03-29T05:06:34;0.77;;;0.73;;
40995;SDS011;26723;57.478;12.066;2024-03-29T05:09:41;0.50;;;0.50;;
40995;SDS011;26723;57.478;12.066;2024-03-29T05:12:49;2.00;;;1.53;;
40995;SDS011;26723;57.478;12.066;2024-03-29T05:15:57;0.70;;;0.70;;
40995;SDS011;26723;57.478;12.066;2024-03-29T05:19:05;0.37;;;0.37;;
40995;SDS011;26723;57.478;12.066;2024-03-29T05:22:13;0.70;;;0.67;;
40995;SDS011;26723;57.478;12.066;2024-03-29T05:25:20;1.93;;;0.70;;
40995;SDS011;26723;57.478;12.066;2024-03-29T05:28:29;0.20;;;0.20;;
40995;SDS011;26723;57.478;12.066;2024-03-29T05:31:36;4.03;;;1.30;;
40995;SDS011;26723;57.478;12.066;2024-03-29T05:34:44;1.13;;;1.13;;
40995;SDS011;26723;57.478;12.066;2024-03-29T05:37:52;1.00;;;0.90;;
40995;SDS011;26723;57.478;12.066;2024-03-29T05:41:00;2.20;;;0.70;;
40995;SDS011;26723;57.478;12.066;2024-03-29T05:44:07;1.13;;;0.80;;
40995;SDS011;26723;57.478;12.066;2024-03-29T05:47:14;1.03;;;1.03;;
40995;SDS011;26723;57.478;12.066;2024-03-29T05:50:23;1.30;;;0.97;;
40995;SDS011;26723;57.478;12.066;2024-03-29T05:53:31;1.33;;;1.30;;
40995;SDS011;26723;57.478;12.066;2024-03-29T05:56:38;0.70;;;0.70;;
40995;SDS011;26723;57.478;12.066;2024-03-29T05:59:45;6.27;;;1.27;;
40995;SDS011;26723;57.478;12.066;2024-03-29T06:02:52;0.57;;;0.57;;
40995;SDS011;26723;57.478;12.066;2024-03-29T06:06:01;2.60;;;2.10;;
40995;SDS011;26723;57.478;12.066;2024-03-29T06:09:08;1.67;;;1.57;;
40995;SDS011;26723;57.478;12.066;2024-03-29T06:12:16;1.47;;;1.10;;
40995;SDS011;26723;57.478;12.066;2024-03-29T06:15:23;1.40;;;1.30;;
40995;SDS011;26723;57.478;12.066;2024-03-29T06:18:47;2.17;;;1.50;;
40995;SDS011;26723;57.478;12.066;2024-03-29T06:21:56;2.33;;;1.90;;
40995;SDS011;26723;57.478;12.066;2024-03-29T06:25:03;15.23;;;2.20;;
40995;SDS011;26723;57.478;12.066;2024-03-29T06:28:14;1.80;;;1.50;;
40995;SDS011;26723;57.478;12.066;2024-03-29T06:31:22;6.87;;;2.83;;
40995;SDS011;26723;57.478;12.066;2024-03-29T06:34:30;1.20;;;1.17;;
40995;SDS011;26723;57.478;12.066;2024-03-29T06:37:38;3.13;;;2.57;;
40995;SDS011;26723;57.478;12.066;2024-03-29T06:40:47;7.03;;;2.33;;
40995;SDS011;26723;57.478;12.066;2024-03-29T06:43:54;4.20;;;2.63;;
40995;SDS011;26723;57.478;12.066;2024-03-29T06:47:01;6.63;;;2.13;;
40995;SDS011;26723;57.478;12.066;2024-03-29T06:50:09;2.13;;;1.73;;
40995;SDS011;26723;57.478;12.066;2024-03-29T06:53:17;4.60;;;2.23;;
40995;SDS011;26723;57.478;12.066;2024-03-29T06:56:25;2.13;;;1.90;;
40995;SDS011;26723;57.478;12.066;2024-03-29T06:59:33;1.67;;;1.57;;
40995;SDS011;26723;57.478;12.066;2024-03-29T07:02:40;2.53;;;2.07;;
40995;SDS011;26723;57.478;12.066;2024-03-29T07:05:47;1.40;;;1.30;;
40995;SDS011;26723;57.478;12.066;2024-03-29T07:08:56;2.20;;;1.13;;
40995;SDS011;26723;57.478;12.066;2024-03-29T07:12:03;1.73;;;1.63;;
40995;SDS011;26723;57.478;12.066;2024-03-29T07:15:11;1.70;;;1.60;;
40995;SDS011;26723;57.478;12.066;2024-03-29T07:18:19;6.60;;;2.67;;
40995;SDS011;26723;57.478;12.066;2024-03-29T07:21:26;10.80;;;2.90;;
40995;SDS011;26723;57.478;12.066;2024-03-29T07:24:35;4.70;;;2.30;;
40995;SDS011;26723;57.478;12.066;2024-03-29T07:27:42;1.87;;;1.77;;
40995;SDS011;26723;57.478;12.066;2024-03-29T07:30:49;3.10;;;2.10;;
40995;SDS011;26723;57.478;12.066;2024-03-29T07:33:58;5.07;;;2.13;;
40995;SDS011;26723;57.478;12.066;2024-03-29T07:37:05;5.63;;;2.17;;
40995;SDS011;26723;57.478;12.066;2024-03-29T07:40:16;3.20;;;2.57;;
40995;SDS011;26723;57.478;12.066;2024-03-29T07:43:23;3.07;;;2.43;;
40995;SDS011;26723;57.478;12.066;2024-03-29T07:46:32;2.20;;;1.50;;
40995;SDS011;26723;57.478;12.066;2024-03-29T07:49:40;2.30;;;1.97;;
40995;SDS011;26723;57.478;12.066;2024-03-29T07:52:47;4.18;;;2.90;;
40995;SDS011;26723;57.478;12.066;2024-03-29T07:55:56;2.03;;;1.87;;
40995;SDS011;26723;57.478;12.066;2024-03-29T07:59:03;2.20;;;2.00;;
40995;SDS011;26723;57.478;12.066;2024-03-29T08:02:11;2.87;;;2.37;;
40995;SDS011;26723;57.478;12.066;2024-03-29T08:05:18;4.67;;;2.33;;
40995;SDS011;26723;57.478;12.066;2024-03-29T08:08:25;3.73;;;2.37;;
40995;SDS011;26723;57.478;12.066;2024-03-29T08:11:34;2.67;;;1.73;;
40995;SDS011;26723;57.478;12.066;2024-03-29T08:14:42;1.57;;;1.47;;
40995;SDS011;26723;57.478;12.066;2024-03-29T08:17:49;4.87;;;1.83;;
40995;SDS011;26723;57.478;12.066;2024-03-29T08:20:57;1.73;;;1.63;;
40995;SDS011;26723;57.478;12.066;2024-03-29T08:24:04;2.07;;;1.97;;
40995;SDS011;26723;57.478;12.066;2024-03-29T08:27:13;2.50;;;1.40;;
40995;SDS011;26723;57.478;12.066;2024-03-29T08:30:21;1.77;;;1.60;;
40995;SDS011;26723;57.478;12.066;2024-03-29T08:33:28;2.70;;;2.10;;
40995;SDS011;26723;57.478;12.066;2024-03-29T08:36:37;4.77;;;1.63;;
40995;SDS011;26723;57.478;12.066;2024-03-29T08:39:44;1.60;;;1.50;;
40995;SDS011;26723;57.478;12.066;2024-03-29T08:42:52;1.07;;;1.07;;
40995;SDS011;26723;57.478;12.066;2024-03-29T08:46:00;1.77;;;1.40;;
40995;SDS011;26723;57.478;12.066;2024-03-29T08:49:07;1.43;;;1.33;;
40995;SDS011;26723;57.478;12.066;2024-03-29T08:52:14;2.37;;;1.37;;
40995;SDS011;26723;57.478;12.066;2024-03-29T08:55:23;2.83;;;1.40;;
40995;SDS011;26723;57.478;12.066;2024-03-29T08:58:31;2.10;;;1.57;;
40995;SDS011;26723;57.478;12.066;2024-03-29T09:01:42;1.77;;;1.67;;
40995;SDS011;26723;57.478;12.066;2024-03-29T09:04:51;1.60;;;1.50;;
40995;SDS011;26723;57.478;12.066;2024-03-29T09:07:58;2.15;;;1.83;;
40995;SDS011;26723;57.478;12.066;2024-03-29T09:11:05;2.10;;;1.37;;
40995;SDS011;26723;57.478;12.066;2024-03-29T09:14:17;1.20;;;1.17;;
40995;SDS011;26723;57.478;12.066;2024-03-29T09:17:24;1.33;;;1.33;;
40995;SDS011;26723;57.478;12.066;2024-03-29T09:20:32;1.37;;;1.27;;
40995;SDS011;26723;57.478;12.066;2024-03-29T09:23:40;5.30;;;0.90;;
40995;SDS011;26723;57.478;12.066;2024-03-29T09:26:48;1.27;;;1.17;;
40995;SDS011;26723;57.478;12.066;2024-03-29T09:29:59;0.97;;;0.87;;
40995;SDS011;26723;57.478;12.066;2024-03-29T09:33:09;1.10;;;1.07;;
40995;SDS011;26723;57.478;12.066;2024-03-29T09:36:16;1.10;;;1.10;;
40995;SDS011;26723;57.478;12.066;2024-03-29T09:39:28;1.03;;;0.93;;
40995;SDS011;26723;57.478;12.066;2024-03-29T09:42:43;1.27;;;1.13;;
40995;SDS011;26723;57.478;12.066;2024-03-29T09:45:53;2.87;;;0.80;;
40995;SDS011;26723;57.478;12.066;2024-03-29T09:49:03;1.27;;;1.20;;
40995;SDS011;26723;57.478;12.066;2024-03-29T09:52:14;0.43;;;0.43;;
40995;SDS011;26723;57.478;12.066;2024-03-29T09:55:22;1.50;;;1.27;;
40995;SDS011;26723;57.478;12.066;2024-03-29T09:58:32;1.37;;;1.27;;
40995;SDS011;26723;57.478;12.066;2024-03-29T10:01:41;1.17;;;0.77;;
40995;SDS011;26723;57.478;12.066;2024-03-29T10:04:49;4.13;;;1.07;;
40995;SDS011;26723;57.478;12.066;2024-03-29T10:08:01;1.37;;;0.93;;
40995;SDS011;26723;57.478;12.066;2024-03-29T10:11:13;2.77;;;1.33;;
40995;SDS011;26723;57.478;12.066;2024-03-29T10:14:29;0.63;;;0.63;;
40995;SDS011;26723;57.478;12.066;2024-03-29T10:17:38;0.87;;;0.87;;
40995;SDS011;26723;57.478;12.066;2024-03-29T10:20:46;0.87;;;0.87;;
40995;SDS011;26723;57.478;12.066;2024-03-29T10:23:54;1.17;;;1.10;;
40995;SDS011;26723;57.478;12.066;2024-03-29T10:27:03;2.40;;;0.53;;
40995;SDS011;26723;57.478;12.066;2024-03-29T10:30:12;1.98;;;1.02;;
40995;SDS011;26723;57.478;12.066;2024-03-29T10:33:29;1.60;;;0.90;;
40995;SDS011;26723;57.478;12.066;2024-03-29T10:36:37;1.15;;;1.15;;
40995;SDS011;26723;57.478;12.066;2024-03-29T10:39:45;0.70;;;0.70;;
40995;SDS011;26723;57.478;12.066;2024-03-29T10:42:55;2.27;;;1.10;;
40995;SDS011;26723;57.478;12.066;2024-03-29T10:46:05;0.90;;;0.90;;
40995;SDS011;26723;57.478;12.066;2024-03-29T10:49:15;1.53;;;1.00;;
40995;SDS011;26723;57.478;12.066;2024-03-29T10:52:23;0.80;;;0.67;;
40995;SDS011;26723;57.478;12.066;2024-03-29T10:55:39;2.17;;;1.23;;
40995;SDS011;26723;57.478;12.066;2024-03-29T10:58:48;1.90;;;0.70;;
40995;SDS011;26723;57.478;12.066;2024-03-29T11:02:01;0.67;;;0.67;;
40995;SDS011;26723;57.478;12.066;2024-03-29T11:05:21;0.50;;;0.50;;
40995;SDS011;26723;57.478;12.066;2024-03-29T11:08:30;1.20;;;1.10;;
40995;SDS011;26723;57.478;12.066;2024-03-29T11:11:41;0.80;;;0.80;;
40995;SDS011;26723;57.478;12.066;2024-03-29T11:14:57;0.77;;;0.70;;
40995;SDS011;26723;57.478;12.066;2024-03-29T11:18:10;0.77;;;0.67;;
40995;SDS011;26723;57.478;12.066;2024-03-29T11:21:18;0.40;;;0.40;;
40995;SDS011;26723;57.478;12.066;2024-03-29T11:24:29;0.53;;;0.53;;
40995;SDS011;26723;57.478;12.066;2024-03-29T11:27:39;1.13;;;0.70;;
40995;SDS011;26723;57.478;12.066;2024-03-29T11:30:46;0.47;;;0.47;;
40995;SDS011;26723;57.478;12.066;2024-03-29T11:33:56;0.90;;;0.90;;
40995;SDS011;26723;57.478;12.066;2024-03-29T11:37:08;1.00;;;0.97;;
40995;SDS011;26723;57.478;12.066;2024-03-29T11:40:17;0.83;;;0.83;;
40995;SDS011;26723;57.478;12.066;2024-03-29T11:43:26;2.73;;;0.70;;
40995;SDS011;26723;57.478;12.066;2024-03-29T11:46:34;1.67;;;0.80;;
40995;SDS011;26723;57.478;12.066;2024-03-29T11:49:42;0.70;;;0.70;;
40995;SDS011;26723;57.478;12.066;2024-03-29T11:52:51;2.37;;;0.50;;
40995;SDS011;26723;57.478;12.066;2024-03-29T11:55:59;4.33;;;0.67;;
40995;SDS011;26723;57.478;12.066;2024-03-29T11:59:06;1.37;;;0.63;;
40995;SDS011;26723;57.478;12.066;2024-03-29T12:02:15;0.40;;;0.40;;
40995;SDS011;26723;57.478;12.066;2024-03-29T12:05:22;0.90;;;0.57;;
40995;SDS011;26723;57.478;12.066;2024-03-29T12:08:32;4.90;;;0.73;;
40995;SDS011;26723;57.478;12.066;2024-03-29T12:11:42;0.53;;;0.53;;
40995;SDS011;26723;57.478;12.066;2024-03-29T12:14:50;0.30;;;0.30;;
40995;SDS011;26723;57.478;12.066;2024-03-29T12:17:58;0.60;;;0.60;;
40995;SDS011;26723;57.478;12.066;2024-03-29T12:21:07;3.40;;;0.80;;
40995;SDS011;26723;57.478;12.066;2024-03-29T12:24:20;4.30;;;1.50;;
40995;SDS011;26723;57.478;12.066;2024-03-29T12:27:27;0.90;;;0.90;;
40995;SDS011;26723;57.478;12.066;2024-03-29T12:30:36;0.63;;;0.60;;
40995;SDS011;26723;57.478;12.066;2024-03-29T12:33:52;0.60;;;0.60;;
40995;SDS011;26723;57.478;12.066;2024-03-29T12:37:00;0.30;;;0.30;;
40995;SDS011;26723;57.478;12.066;2024-03-29T12:40:09;0.60;;;0.60;;
40995;SDS011;26723;57.478;12.066;2024-03-29T12:43:19;1.23;;;0.50;;
40995;SDS011;26723;57.478;12.066;2024-03-29T12:46:27;0.40;;;0.40;;
40995;SDS011;26723;57.478;12.066;2024-03-29T12:49:35;0.80;;;0.80;;
40995;SDS011;26723;57.478;12.066;2024-03-29T12:52:47;0.93;;;0.90;;
40995;SDS011;26723;57.478;12.066;2024-03-29T12:55:57;0.60;;;0.60;;
40995;SDS011;26723;57.478;12.066;2024-03-29T12:59:05;0.10;;;0.10;;
40995;SDS011;26723;57.478;12.066;2024-03-29T13:02:12;0.70;;;0.60;;
40995;SDS011;26723;57.478;12.066;2024-03-29T13:05:20;0.70;;;0.70;;
40995;SDS011;26723;57.478;12.066;2024-03-29T13:08:28;1.30;;;0.20;;
40995;SDS011;26723;57.478;12.066;2024-03-29T13:11:36;1.93;;;0.30;;
40995;SDS011;26723;57.478;12.066;2024-03-29T13:14:44;0.50;;;0.33;;
40995;SDS011;26723;57.478;12.066;2024-03-29T13:17:51;0.40;;;0.40;;
40995;SDS011;26723;57.478;12.066;2024-03-29T13:21:00;0.20;;;0.20;;
40995;SDS011;26723;57.478;12.066;2024-03-29T13:24:08;0.60;;;0.57;;
40995;SDS011;26723;57.478;12.066;2024-03-29T13:27:16;2.47;;;0.53;;
40995;SDS011;26723;57.478;12.066;2024-03-29T13:30:24;0.87;;;0.60;;
40995;SDS011;26723;57.478;12.066;2024-03-29T13:33:31;0.47;;;0.47;;
40995;SDS011;26723;57.478;12.066;2024-03-29T13:36:39;0.23;;;0.23;;
40995;SDS011;26723;57.478;12.066;2024-03-29T13:39:46;0.50;;;0.50;;
40995;SDS011;26723;57.478;12.066;2024-03-29T13:42:55;2.77;;;0.43;;
40995;SDS011;26723;57.478;12.066;2024-03-29T13:46:02;0.53;;;0.40;;
40995;SDS011;26723;57.478;12.066;2024-03-29T13:49:12;0.73;;;0.53;;
40995;SDS011;26723;57.478;12.066;2024-03-29T13:52:19;0.67;;;0.30;;
40995;SDS011;26723;57.478;12.066;2024-03-29T13:55:27;0.50;;;0.33;;
40995;SDS011;26723;57.478;12.066;2024-03-29T13:58:35;0.20;;;0.20;;
40995;SDS011;26723;57.478;12.066;2024-03-29T14:01:43;0.20;;;0.20;;
40995;SDS011;26723;57.478;12.066;2024-03-29T14:04:51;2.20;;;0.57;;
40995;SDS011;26723;57.478;12.066;2024-03-29T14:07:58;0.40;;;0.40;;
40995;SDS011;26723;57.478;12.066;2024-03-29T14:11:06;0.40;;;0.40;;
40995;SDS011;26723;57.478;12.066;2024-03-29T14:14:15;1.40;;;0.60;;
40995;SDS011;26723;57.478;12.066;2024-03-29T14:17:22;0.13;;;0.13;;
40995;SDS011;26723;57.478;12.066;2024-03-29T14:20:30;0.20;;;0.20;;
40995;SDS011;26723;57.478;12.066;2024-03-29T14:23:37;1.60;;;0.70;;
40995;SDS011;26723;57.478;12.066;2024-03-29T14:26:45;1.90;;;0.83;;
40995;SDS011;26723;57.478;12.066;2024-03-29T14:29:54;0.13;;;0.13;;
40995;SDS011;26723;57.478;12.066;2024-03-29T14:33:01;0.20;;;0.20;;
40995;SDS011;26723;57.478;12.066;2024-03-29T14:36:11;0.33;;;0.30;;
40995;SDS011;26723;57.478;12.066;2024-03-29T14:39:19;0.13;;;0.13;;
40995;SDS011;26723;57.478;12.066;2024-03-29T14:42:26;0.57;;;0.30;;
40995;SDS011;26723;57.478;12.066;2024-03-29T14:45:35;0.23;;;0.23;;
40995;SDS011;26723;57.478;12.066;2024-03-29T14:48:42;0.73;;;0.40;;
40995;SDS011;26723;57.478;12.066;2024-03-29T14:51:49;0.33;;;0.33;;
40995;SDS011;26723;57.478;12.066;2024-03-29T14:54:59;0.27;;;0.27;;
40995;SDS011;26723;57.478;12.066;2024-03-29T14:58:06;0.10;;;0.10;;
40995;SDS011;26723;57.478;12.066;2024-03-29T15:01:15;0.30;;;0.30;;
40995;SDS011;26723;57.478;12.066;2024-03-29T15:04:22;0.20;;;0.20;;
40995;SDS011;26723;57.478;12.066;2024-03-29T15:07:30;0.30;;;0.30;;
40995;SDS011;26723;57.478;12.066;2024-03-29T15:10:37;0.40;;;0.40;;
40995;SDS011;26723;57.478;12.066;2024-03-29T15:13:45;0.10;;;0.10;;
40995;SDS011;26723;57.478;12.066;2024-03-29T15:16:53;0.20;;;0.20;;
40995;SDS011;26723;57.478;12.066;2024-03-29T15:20:02;0.37;;;0.37;;
40995;SDS011;26723;57.478;12.066;2024-03-29T15:23:10;0.23;;;0.23;;
40995;SDS011;26723;57.478;12.066;2024-03-29T15:26:18;0.20;;;0.20;;
40995;SDS011;26723;57.478;12.066;2024-03-29T15:29:26;0.63;;;0.50;;
40995;SDS011;26723;57.478;12.066;2024-03-29T15:32:33;0.20;;;0.20;;
40995;SDS011;26723;57.478;12.066;2024-03-29T15:35:41;0.20;;;0.20;;
40995;SDS011;26723;57.478;12.066;2024-03-29T15:38:49;1.03;;;0.73;;
40995;SDS011;26723;57.478;12.066;2024-03-29T15:41:59;0.43;;;0.43;;
40995;SDS011;26723;57.478;12.066;2024-03-29T15:45:07;3.90;;;0.53;;
40995;SDS011;26723;57.478;12.066;2024-03-29T15:48:17;0.33;;;0.33;;
40995;SDS011;26723;57.478;12.066;2024-03-29T15:51:24;3.20;;;0.50;;
40995;SDS011;26723;57.478;12.066;2024-03-29T15:54:31;0.53;;;0.33;;
40995;SDS011;26723;57.478;12.066;2024-03-29T15:57:38;0.20;;;0.20;;
40995;SDS011;26723;57.478;12.066;2024-03-29T16:00:47;1.90;;;0.53;;
40995;SDS011;26723;57.478;12.066;2024-03-29T16:03:55;0.43;;;0.23;;
40995;SDS011;26723;57.478;12.066;2024-03-29T16:07:02;0.53;;;0.53;;
40995;SDS011;26723;57.478;12.066;2024-03-29T16:10:10;1.20;;;0.33;;
40995;SDS011;26723;57.478;12.066;2024-03-29T16:13:17;0.93;;;0.87;;
40995;SDS011;26723;57.478;12.066;2024-03-29T16:16:24;0.20;;;0.20;;
40995;SDS011;26723;57.478;12.066;2024-03-29T16:19:33;0.30;;;0.30;;
40995;SDS011;26723;57.478;12.066;2024-03-29T16:22:39;0.10;;;0.10;;
40995;SDS011;26723;57.478;12.066;2024-03-29T16:25:46;2.43;;;0.70;;
40995;SDS011;26723;57.478;12.066;2024-03-29T16:28:53;6.20;;;0.60;;
40995;SDS011;26723;57.478;12.066;2024-03-29T16:32:01;0.37;;;0.37;;
40995;SDS011;26723;57.478;12.066;2024-03-29T16:35:10;2.53;;;0.83;;
40995;SDS011;26723;57.478;12.066;2024-03-29T16:38:17;0.73;;;0.50;;
40995;SDS011;26723;57.478;12.066;2024-03-29T16:41:24;0.13;;;0.13;;
40995;SDS011;26723;57.478;12.066;2024-03-29T16:44:30;0.37;;;0.37;;
40995;SDS011;26723;57.478;12.066;2024-03-29T16:47:37;0.40;;;0.40;;
40995;SDS011;26723;57.478;12.066;2024-03-29T16:50:48;0.67;;;0.67;;
40995;SDS011;26723;57.478;12.066;2024-03-29T16:53:54;0.40;;;0.40;;
40995;SDS011;26723;57.478;12.066;2024-03-29T16:57:01;0.73;;;0.40;;
40995;SDS011;26723;57.478;12.066;2024-03-29T17:00:08;3.07;;;0.33;;
40995;SDS011;26723;57.478;12.066;2024-03-29T17:03:17;1.30;;;0.37;;
40995;SDS011;26723;57.478;12.066;2024-03-29T17:06:25;0.23;;;0.23;;
40995;SDS011;26723;57.478;12.066;2024-03-29T17:09:33;0.20;;;0.20;;
40995;SDS011;26723;57.478;12.066;2024-03-29T17:12:42;0.40;;;0.33;;
40995;SDS011;26723;57.478;12.066;2024-03-29T17:15:49;0.23;;;0.23;;
40995;SDS011;26723;57.478;12.066;2024-03-29T17:18:56;0.20;;;0.20;;
40995;SDS011;26723;57.478;12.066;2024-03-29T17:22:04;0.27;;;0.27;;
40995;SDS011;26723;57.478;12.066;2024-03-29T17:25:11;1.13;;;0.57;;
40995;SDS011;26723;57.478;12.066;2024-03-29T17:28:18;0.23;;;0.23;;
40995;SDS011;26723;57.478;12.066;2024-03-29T17:31:25;0.37;;;0.37;;
40995;SDS011;26723;57.478;12.066;2024-03-29T17:34:33;0.30;;;0.30;;
40995;SDS011;26723;57.478;12.066;2024-03-29T17:37:41;0.37;;;0.37;;
40995;SDS011;26723;57.478;12.066;2024-03-29T17:40:48;0.60;;;0.60;;
40995;SDS011;26723;57.478;12.066;2024-03-29T17:43:55;1.50;;;0.67;;
40995;SDS011;26723;57.478;12.066;2024-03-29T17:47:02;0.60;;;0.60;;
40995;SDS011;26723;57.478;12.066;2024-03-29T17:50:10;0.27;;;0.27;;
40995;SDS011;26723;57.478;12.066;2024-03-29T17:53:19;5.40;;;0.80;;
40995;SDS011;26723;57.478;12.066;2024-03-29T17:56:27;0.10;;;0.10;;
40995;SDS011;26723;57.478;12.066;2024-03-29T17:59:33;0.30;;;0.27;;
40995;SDS011;26723;57.478;12.066;2024-03-29T18:02:40;0.27;;;0.27;;
40995;SDS011;26723;57.478;12.066;2024-03-29T18:05:47;1.13;;;0.70;;
40995;SDS011;26723;57.478;12.066;2024-03-29T18:08:55;0.63;;;0.40;;
40995;SDS011;26723;57.478;12.066;2024-03-29T18:12:02;0.50;;;0.50;;
40995;SDS011;26723;57.478;12.066;2024-03-29T18:15:09;0.23;;;0.23;;
40995;SDS011;26723;57.478;12.066;2024-03-29T18:18:16;0.20;;;0.20;;
40995;SDS011;26723;57.478;12.066;2024-03-29T18:21:25;0.30;;;0.30;;
40995;SDS011;26723;57.478;12.066;2024-03-29T18:24:34;0.20;;;0.20;;
40995;SDS011;26723;57.478;12.066;2024-03-29T18:27:40;1.20;;;0.30;;
40995;SDS011;26723;57.478;12.066;2024-03-29T18:30:47;0.50;;;0.30;;
40995;SDS011;26723;57.478;12.066;2024-03-29T18:33:54;1.27;;;0.50;;